createdAt,value
2022-11-29T00:01:39.404Z,4.77
2022-11-29T00:04:06.934Z,5.30
2022-11-29T00:06:35.304Z,5.17
2022-11-29T00:09:07.800Z,5.43
2022-11-29T00:11:56.155Z,5.63
2022-11-29T00:14:24.593Z,5.23
2022-11-29T00:16:54.084Z,5.47
2022-11-29T00:19:24.930Z,4.80
2022-11-29T00:21:52.312Z,5.37
2022-11-29T00:24:19.569Z,6.17
2022-11-29T00:26:53.577Z,5.40
2022-11-29T00:29:20.636Z,5.40
2022-11-29T00:31:47.737Z,4.57
2022-11-29T00:34:14.976Z,5.87
2022-11-29T00:36:45.014Z,6.57
2022-11-29T00:39:13.242Z,6.40
2022-11-29T00:41:40.414Z,5.90
2022-11-29T00:44:07.692Z,6.30
2022-11-29T00:46:34.690Z,6.03
2022-11-29T00:49:01.924Z,6.10
2022-11-29T00:51:32.064Z,5.57
2022-11-29T00:53:58.986Z,6.30
2022-11-29T00:56:26.307Z,5.23
2022-11-29T00:58:56.339Z,5.40
2022-11-29T01:01:23.383Z,5.97
2022-11-29T01:03:50.630Z,6.40
2022-11-29T01:06:48.938Z,6.40
2022-11-29T01:09:06.783Z,6.50
2022-11-29T01:11:34.101Z,6.37
2022-11-29T01:14:02.712Z,6.20
2022-11-29T01:16:31.360Z,6.20
2022-11-29T01:18:58.575Z,5.30
2022-11-29T01:21:25.493Z,6.43
2022-11-29T01:23:54.182Z,5.27
2022-11-29T01:26:27.032Z,5.40
2022-11-29T01:28:56.237Z,5.80
2022-11-29T01:31:26.902Z,5.50
2022-11-29T01:34:00.743Z,5.33
2022-11-29T01:36:28.072Z,5.60
2022-11-29T01:38:54.968Z,5.03
2022-11-29T01:41:27.572Z,4.63
2022-11-29T01:44:02.515Z,5.07
2022-11-29T01:46:32.506Z,5.30
2022-11-29T01:49:06.153Z,5.50
2022-11-29T01:51:34.584Z,5.33
2022-11-29T01:54:01.606Z,5.23
2022-11-29T01:56:30.674Z,5.40
2022-11-29T01:58:57.981Z,5.50
2022-11-29T02:01:25.990Z,5.50
2022-11-29T02:03:53.827Z,4.93
2022-11-29T02:06:20.946Z,5.83
2022-11-29T02:08:47.940Z,5.47
2022-11-29T02:11:17.754Z,5.23
2022-11-29T02:14:07.919Z,5.43
2022-11-29T02:17:21.018Z,5.47
2022-11-29T02:19:57.407Z,5.30
2022-11-29T02:22:34.233Z,5.70
2022-11-29T02:25:38.814Z,5.93
2022-11-29T02:28:25.144Z,5.40
2022-11-29T02:31:27.121Z,5.20
2022-11-29T02:34:09.184Z,5.37
2022-11-29T02:36:41.683Z,4.67
2022-11-29T02:39:38.510Z,4.63
2022-11-29T02:42:26.798Z,4.87
2022-11-29T02:45:14.728Z,5.27
2022-11-29T02:47:50.795Z,4.90
2022-11-29T02:50:28.121Z,4.33
2022-11-29T02:53:01.501Z,5.60
2022-11-29T02:55:39.183Z,5.10
2022-11-29T02:58:50.513Z,5.47
2022-11-29T03:01:21.919Z,4.90
2022-11-29T03:04:05.560Z,5.10
2022-11-29T03:07:05.141Z,5.30
2022-11-29T03:10:25.122Z,4.33
2022-11-29T03:12:54.255Z,4.83
2022-11-29T03:15:32.921Z,5.20
2022-11-29T03:18:09.055Z,4.50
2022-11-29T03:21:00.060Z,3.20
2022-11-29T03:23:44.097Z,4.60
2022-11-29T03:26:13.890Z,4.77
2022-11-29T03:29:07.129Z,5.10
2022-11-29T03:31:52.194Z,5.57
2022-11-29T03:34:45.403Z,4.93
2022-11-29T03:37:31.384Z,5.37
2022-11-29T03:40:05.411Z,5.77
2022-11-29T03:43:02.580Z,5.33
2022-11-29T03:45:34.975Z,5.03
2022-11-29T03:48:11.753Z,4.63
2022-11-29T03:50:44.153Z,5.53
2022-11-29T03:53:50.653Z,6.07
2022-11-29T03:56:32.248Z,5.40
2022-11-29T03:59:12.453Z,5.37
2022-11-29T04:02:01.463Z,6.30
2022-11-29T04:04:58.979Z,5.90
2022-11-29T04:08:00.706Z,5.40
2022-11-29T04:11:21.149Z,5.70
2022-11-29T04:14:03.162Z,6.20
2022-11-29T04:17:18.384Z,6.10
2022-11-29T04:20:00.505Z,5.50
2022-11-29T04:22:52.770Z,5.73
2022-11-29T04:26:04.047Z,5.93
2022-11-29T04:29:00.521Z,5.13
2022-11-29T04:31:33.172Z,5.20
2022-11-29T04:34:37.975Z,5.60
2022-11-29T04:37:52.386Z,5.87
2022-11-29T04:40:52.030Z,5.57
2022-11-29T04:43:34.300Z,5.47
2022-11-29T04:46:40.220Z,6.30
2022-11-29T04:49:31.744Z,5.10
2022-11-29T04:52:27.959Z,5.27
2022-11-29T04:55:04.914Z,4.93
2022-11-29T04:57:45.750Z,5.97
2022-11-29T05:00:20.689Z,5.53
2022-11-29T05:02:59.477Z,5.43
2022-11-29T05:05:55.234Z,5.60
2022-11-29T05:08:40.113Z,5.27
2022-11-29T05:11:09.817Z,5.10
2022-11-29T05:13:51.683Z,5.40
2022-11-29T05:16:43.097Z,5.30
2022-11-29T05:19:48.942Z,6.23
2022-11-29T05:22:49.132Z,5.90
2022-11-29T05:25:34.854Z,5.73
2022-11-29T05:28:36.228Z,5.57
2022-11-29T05:31:32.781Z,5.43
2022-11-29T05:34:18.521Z,4.87
2022-11-29T05:37:20.538Z,4.97
2022-11-29T05:39:50.495Z,5.40
2022-11-29T05:42:39.034Z,4.90
2022-11-29T05:45:18.261Z,5.50
2022-11-29T05:48:09.818Z,4.77
2022-11-29T05:50:40.050Z,5.20
2022-11-29T05:53:28.019Z,5.50
2022-11-29T05:56:16.123Z,5.20
2022-11-29T05:58:59.044Z,4.83
2022-11-29T06:01:33.019Z,5.00
2022-11-29T06:04:32.397Z,4.80
2022-11-29T06:07:23.514Z,5.00
2022-11-29T06:10:02.278Z,5.23
2022-11-29T06:12:35.782Z,5.93
2022-11-29T06:15:20.383Z,5.33
2022-11-29T06:18:22.972Z,5.27
2022-11-29T06:20:55.763Z,4.90
2022-11-29T06:23:33.411Z,4.87
2022-11-29T06:26:41.659Z,6.30
2022-11-29T06:29:40.167Z,5.73
2022-11-29T06:32:46.340Z,5.60
2022-11-29T06:35:35.617Z,6.13
2022-11-29T06:38:13.429Z,5.87
2022-11-29T06:40:48.593Z,5.10
2022-11-29T06:43:16.265Z,5.40
2022-11-29T06:45:51.879Z,4.87
2022-11-29T06:48:29.333Z,5.43
2022-11-29T06:51:26.869Z,6.30
2022-11-29T06:54:17.988Z,4.47
2022-11-29T06:57:12.187Z,4.50
2022-11-29T06:59:57.880Z,5.27
2022-11-29T07:02:55.841Z,4.50
2022-11-29T07:05:27.769Z,5.13
2022-11-29T07:08:00.930Z,4.60
2022-11-29T07:10:39.925Z,4.83
2022-11-29T07:13:09.805Z,4.37
2022-11-29T07:15:38.400Z,4.87
2022-11-29T07:18:16.978Z,4.77
2022-11-29T07:21:15.141Z,4.50
2022-11-29T07:23:45.316Z,5.57
2022-11-29T07:26:40.252Z,5.03
2022-11-29T07:29:26.136Z,4.80
2022-11-29T07:32:12.624Z,6.50
2022-11-29T07:34:43.112Z,10.90
2022-11-29T07:37:30.863Z,5.17
2022-11-29T07:40:13.726Z,4.77
2022-11-29T07:43:03.434Z,4.83
2022-11-29T07:45:39.042Z,4.70
2022-11-29T07:48:07.012Z,6.83
2022-11-29T07:50:35.999Z,3.83
2022-11-29T07:53:04.245Z,4.10
2022-11-29T07:55:33.322Z,4.70
2022-11-29T07:58:00.365Z,4.70
2022-11-29T08:00:27.708Z,4.47
2022-11-29T08:02:55.086Z,4.17
2022-11-29T08:05:24.492Z,4.23
2022-11-29T08:07:53.202Z,4.83
2022-11-29T08:10:22.554Z,4.00
2022-11-29T08:12:54.575Z,4.60
2022-11-29T08:15:23.255Z,5.43
2022-11-29T08:17:51.082Z,5.40
2022-11-29T08:20:20.988Z,5.00
2022-11-29T08:23:04.138Z,5.30
2022-11-29T08:25:31.796Z,4.47
2022-11-29T08:28:03.698Z,5.17
2022-11-29T08:30:30.853Z,4.73
2022-11-29T08:32:58.582Z,5.03
2022-11-29T08:35:25.726Z,4.30
2022-11-29T08:37:54.168Z,5.30
2022-11-29T08:40:21.443Z,3.90
2022-11-29T08:42:48.502Z,4.47
2022-11-29T08:45:15.553Z,4.83
2022-11-29T08:47:43.133Z,4.27
2022-11-29T08:50:16.358Z,4.10
2022-11-29T08:53:05.865Z,4.97
2022-11-29T08:55:36.421Z,4.53
2022-11-29T08:58:09.830Z,4.20
2022-11-29T09:00:40.159Z,4.27
2022-11-29T09:03:26.859Z,3.90
2022-11-29T09:05:54.274Z,4.20
2022-11-29T09:08:21.707Z,4.23
2022-11-29T09:10:48.904Z,4.03
2022-11-29T09:13:15.861Z,5.17
2022-11-29T09:15:43.778Z,4.33
2022-11-29T09:18:11.363Z,4.30
2022-11-29T09:20:38.828Z,4.80
2022-11-29T09:23:05.947Z,4.53
2022-11-29T09:25:33.227Z,5.30
2022-11-29T09:28:02.941Z,4.60
2022-11-29T09:30:31.787Z,4.13
2022-11-29T09:33:04.112Z,6.30
2022-11-29T09:35:31.638Z,4.87
2022-11-29T09:38:07.707Z,4.40
2022-11-29T09:40:49.091Z,4.57
2022-11-29T09:43:34.567Z,5.00
2022-11-29T09:46:16.327Z,4.33
2022-11-29T09:49:24.303Z,4.60
2022-11-29T09:52:24.731Z,3.53
2022-11-29T09:55:13.326Z,4.33
2022-11-29T09:57:55.570Z,4.33
2022-11-29T10:00:22.719Z,4.43
2022-11-29T10:03:14.742Z,4.50
2022-11-29T10:05:59.150Z,3.63
2022-11-29T10:08:44.147Z,4.00
2022-11-29T10:11:23.519Z,4.33
2022-11-29T10:13:58.504Z,5.07
2022-11-29T10:16:32.648Z,5.57
2022-11-29T10:19:10.346Z,5.30
2022-11-29T10:21:40.960Z,4.50
2022-11-29T10:24:18.134Z,4.43
2022-11-29T10:26:45.972Z,6.63
2022-11-29T10:29:20.225Z,6.67
2022-11-29T10:32:02.715Z,5.30
2022-11-29T10:34:33.293Z,4.33
2022-11-29T10:37:02.653Z,3.97
2022-11-29T10:39:47.048Z,4.40
2022-11-29T10:42:36.901Z,5.73
2022-11-29T10:45:17.952Z,5.13
2022-11-29T10:47:47.269Z,4.67
2022-11-29T10:50:22.930Z,6.10
2022-11-29T10:52:49.978Z,4.10
2022-11-29T10:55:17.932Z,4.47
2022-11-29T10:58:12.175Z,5.17
2022-11-29T11:00:51.582Z,3.87
2022-11-29T11:03:53.072Z,5.30
2022-11-29T11:06:27.746Z,3.97
2022-11-29T11:08:55.941Z,3.23
2022-11-29T11:11:32.611Z,4.20
2022-11-29T11:14:05.673Z,4.57
2022-11-29T11:16:37.310Z,6.13
2022-11-29T11:19:31.048Z,4.27
2022-11-29T11:22:03.333Z,4.07
2022-11-29T11:24:40.101Z,4.00
2022-11-29T11:27:07.755Z,4.67
2022-11-29T11:29:41.368Z,5.93
2022-11-29T11:32:19.258Z,4.80
2022-11-29T11:34:58.798Z,3.90
2022-11-29T11:37:31.800Z,3.03
2022-11-29T11:40:31.120Z,3.70
2022-11-29T11:43:04.443Z,3.40
2022-11-29T11:45:39.783Z,2.73
2022-11-29T11:48:16.542Z,2.70
2022-11-29T11:50:54.526Z,2.70
2022-11-29T11:53:31.693Z,2.70
2022-11-29T11:56:08.366Z,2.77
2022-11-29T11:58:38.490Z,2.77
2022-11-29T12:01:37.674Z,2.60
2022-11-29T12:04:27.842Z,3.07
2022-11-29T12:07:45.036Z,3.03
2022-11-29T12:10:27.492Z,3.53
2022-11-29T12:12:58.460Z,3.47
2022-11-29T12:15:45.158Z,3.17
2022-11-29T12:18:22.722Z,3.00
2022-11-29T12:21:06.784Z,2.83
2022-11-29T12:24:03.048Z,3.60
2022-11-29T12:26:56.338Z,3.53
2022-11-29T12:29:28.760Z,2.90
2022-11-29T12:32:34.099Z,3.30
2022-11-29T12:35:06.711Z,3.70
2022-11-29T12:37:46.731Z,2.77
2022-11-29T12:40:57.509Z,3.30
2022-11-29T12:43:46.929Z,4.23
2022-11-29T12:46:31.790Z,2.80
2022-11-29T12:49:43.817Z,3.00
2022-11-29T12:52:42.334Z,3.13
2022-11-29T12:55:18.623Z,3.10
2022-11-29T12:57:48.728Z,3.10
2022-11-29T13:00:18.445Z,2.93
2022-11-29T13:03:09.746Z,3.20
2022-11-29T13:06:00.725Z,2.50
2022-11-29T13:08:52.253Z,2.70
2022-11-29T13:11:33.466Z,2.80
2022-11-29T13:14:42.232Z,1.80
2022-11-29T13:17:15.292Z,2.67
2022-11-29T13:26:49.509Z,7.07
2022-11-29T13:30:11.139Z,2.63
2022-11-29T13:46:10.188Z,3.40
2022-11-29T13:49:17.590Z,2.67
2022-11-29T13:51:54.794Z,3.53
2022-11-29T13:54:47.595Z,3.80
2022-11-29T13:57:47.826Z,3.47
2022-11-29T14:00:50.994Z,4.93
2022-11-29T14:04:09.251Z,3.67
2022-11-29T14:07:05.540Z,2.93
2022-11-29T14:10:08.204Z,6.07
2022-11-29T14:17:44.832Z,3.50
2022-11-29T14:20:34.409Z,3.60
2022-11-29T14:23:28.694Z,4.03
2022-11-29T14:26:28.023Z,3.43
2022-11-29T14:29:23.011Z,3.20
2022-11-29T14:31:55.578Z,3.93
2022-11-29T14:34:42.339Z,3.40
2022-11-29T14:38:09.465Z,3.30
2022-11-29T14:41:10.701Z,3.37
2022-11-29T14:43:54.975Z,2.93
2022-11-29T14:46:29.683Z,3.40
2022-11-29T14:49:06.722Z,3.20
2022-11-29T14:51:40.461Z,4.40
2022-11-29T14:55:01.794Z,3.57
2022-11-29T14:58:07.466Z,3.10
2022-11-29T15:00:46.521Z,3.30
2022-11-29T15:04:11.113Z,3.40
2022-11-29T15:06:53.096Z,2.57
2022-11-29T15:09:43.111Z,3.73
2022-11-29T15:12:41.440Z,3.43
2022-11-29T15:17:12.625Z,3.10
2022-11-29T15:19:32.587Z,3.10
2022-11-29T15:24:08.481Z,2.80
2022-11-29T15:25:47.162Z,3.03
2022-11-29T15:28:34.148Z,3.43
2022-11-29T15:31:22.552Z,2.77
2022-11-29T15:33:54.771Z,2.97
2022-11-29T15:36:49.764Z,2.77
2022-11-29T15:39:53.822Z,4.10
2022-11-29T15:42:40.758Z,3.37
2022-11-29T15:45:35.706Z,2.80
2022-11-29T15:48:40.501Z,3.00
2022-11-29T15:51:19.566Z,3.27
2022-11-29T15:54:12.905Z,3.60
2022-11-29T15:56:53.849Z,4.00
2022-11-29T15:59:54.183Z,3.50
2022-11-29T16:10:03.688Z,3.50
2022-11-29T16:13:17.100Z,3.87
2022-11-29T16:16:31.323Z,3.40
2022-11-29T16:20:06.269Z,3.63
2022-11-29T16:23:32.348Z,4.17
2022-11-29T16:29:30.454Z,4.27
2022-11-29T16:35:45.303Z,5.23
2022-11-29T16:38:50.264Z,2.90
2022-11-29T16:45:09.253Z,3.80
2022-11-29T16:48:00.264Z,3.53
2022-11-29T16:51:21.267Z,3.70
2022-11-29T16:57:26.967Z,3.23
2022-11-29T17:00:11.981Z,3.60
2022-11-29T17:03:05.374Z,4.00
2022-11-29T17:05:59.591Z,4.60
2022-11-29T17:11:39.873Z,4.30
2022-11-29T17:14:27.342Z,4.30
2022-11-29T17:17:04.248Z,4.73
2022-11-29T17:26:37.594Z,5.40
2022-11-29T17:29:28.951Z,5.03
2022-11-29T17:32:00.089Z,4.97
2022-11-29T17:35:04.214Z,5.63
2022-11-29T17:37:47.988Z,7.13
2022-11-29T17:41:00.299Z,5.07
2022-11-29T17:44:01.157Z,5.00
2022-11-29T17:47:44.811Z,4.30
2022-11-29T17:52:58.115Z,4.60
2022-11-29T17:55:33.363Z,4.03
2022-11-29T17:58:22.833Z,4.10
2022-11-29T18:05:01.092Z,3.00
2022-11-29T18:09:37.616Z,4.17
2022-11-29T18:11:10.040Z,2.10
2022-11-29T18:13:48.533Z,3.07
2022-11-29T18:16:58.932Z,2.90
2022-11-29T18:19:42.334Z,3.23
2022-11-29T18:22:22.916Z,3.60
2022-11-29T18:25:38.089Z,3.30
2022-11-29T18:31:53.789Z,3.50
2022-11-29T18:35:07.824Z,3.03
2022-11-29T18:41:05.317Z,3.37
2022-11-29T18:44:06.243Z,2.83
2022-11-29T18:47:45.058Z,3.13
2022-11-29T18:50:22.412Z,3.57
2022-11-29T18:53:03.744Z,3.10
2022-11-29T18:55:55.876Z,4.20
2022-11-29T18:58:44.643Z,2.87
2022-11-29T19:01:44.979Z,3.13
2022-11-29T19:04:41.644Z,2.07
2022-11-29T19:10:03.195Z,2.70
2022-11-29T19:13:12.440Z,2.83
2022-11-29T19:18:39.501Z,2.63
2022-11-29T19:21:28.744Z,3.70
2022-11-29T19:24:47.067Z,2.33
2022-11-29T19:27:04.886Z,2.70
2022-11-29T19:29:36.652Z,2.80
2022-11-29T19:32:12.186Z,3.33
2022-11-29T19:34:42.672Z,3.40
2022-11-29T19:37:16.286Z,3.57
2022-11-29T19:39:54.218Z,3.27
2022-11-29T19:42:29.342Z,3.33
2022-11-29T19:45:21.155Z,4.97
2022-11-29T19:48:06.870Z,4.03
2022-11-29T19:50:52.722Z,4.07
2022-11-29T19:57:11.770Z,4.90
2022-11-29T19:59:39.833Z,4.87
2022-11-29T20:02:06.958Z,4.67
